X  Schlie├čen Metar Luftfahrt Wetterdaten     EBBR Brussels Airport
Temperatur
12°C Temperatur
10°C Taupunkt
88% Feuchtigkeit



Wind
10 KM/H
6 MPH
3 M/S
5 KTS



30°
NNO
Aktuelle Wetterlage

Klar Klar
Luftdruck 1021.92 (hPa) - 30.18 (inHg)
Sichtweite 6.2 (Meile) - 10 (km)
Flughafen
Flughafen Code EBBR

Position : Brussels Airport
Entfernung: 14 (km)

Metar:
EBBR 042320Z 03005KT CAVOK 12/10 Q1022 NOSIG

Zeit: 2023-06-05 01:20 CEST